Time;durP1;ratioP1;P1;durP2;ratioP2;P2;SDS_P1;SDS_P2;PMS_P1;PMS_P2;Temp;Humidity;BMP_temperature;BMP_pressure;BME280_temperature;BME280_humidity;BME280_pressure;Samples;Min_cycle;Max_cycle;Signal;HPM_P1;HPM_P2
2021/08/04 00:01:42;;;;;;;15.77;10.00;;;28.60;99.90;;;;;;5011126;28;20206;-92
2021/08/04 00:04:23;;;;;;;9.77;8.80;;;28.30;99.90;;;;;;5013874;28;20301;-92
2021/08/04 00:10:00;;;;;;;10.67;8.47;;;28.10;99.90;;;;;;5016423;28;20279;-90
2021/08/04 00:12:34;;;;;;;11.17;9.00;;;28.10;99.90;;;;;;5012875;28;20205;-91
2021/08/04 00:15:10;;;;;;;10.47;9.17;;;28.00;99.90;;;;;;5012255;28;20235;-91
2021/08/04 00:17:42;;;;;;;9.57;8.63;;;28.10;99.90;;;;;;5013305;28;20265;-92
2021/08/04 00:20:16;;;;;;;9.97;8.97;;;28.00;99.90;;;;;;5019360;28;20291;-93
2021/08/04 00:22:54;;;;;;;10.93;9.43;;;28.10;99.90;;;;;;5020389;28;20205;-91
2021/08/04 00:25:26;;;;;;;9.40;8.40;;;28.20;99.90;;;;;;5018122;28;20197;-91
2021/08/04 00:27:58;;;;;;;9.83;8.63;;;28.10;99.90;;;;;;4997775;28;20211;-90
2021/08/04 00:30:32;;;;;;;9.30;8.40;;;28.30;99.90;;;;;;4995487;28;20246;-91
2021/08/04 00:33:05;;;;;;;10.77;9.03;;;28.50;99.90;;;;;;4999474;28;20202;-90
2021/08/04 00:35:37;;;;;;;10.23;9.23;;;28.50;99.90;;;;;;5021871;28;20233;-91
2021/08/04 00:38:13;;;;;;;11.17;8.47;;;28.30;99.90;;;;;;5033630;28;20210;-90
2021/08/04 00:40:47;;;;;;;10.93;9.30;;;28.00;99.90;;;;;;5031787;28;20229;-91
2021/08/04 00:43:18;;;;;;;9.27;8.47;;;27.70;99.90;;;;;;5033808;28;20213;-91
2021/08/04 00:45:52;;;;;;;8.77;7.87;;;27.50;99.90;;;;;;5031324;28;20246;-90
2021/08/04 00:48:24;;;;;;;9.07;8.20;;;27.30;99.90;;;;;;5031170;28;20216;-91
2021/08/04 00:50:58;;;;;;;8.60;6.93;;;27.30;99.90;;;;;;5033521;28;20233;-90
2021/08/04 00:53:31;;;;;;;9.53;7.03;;;27.20;99.90;;;;;;5035048;28;20221;-91
2021/08/04 00:56:10;;;;;;;9.23;6.70;;;27.10;99.90;;;;;;5034822;28;20229;-90
2021/08/04 00:58:45;;;;;;;8.03;5.93;;;27.00;99.90;;;;;;5032354;28;20220;-91
2021/08/04 01:01:25;;;;;;;8.03;5.77;;;26.80;99.90;;;;;;5031576;28;20212;-91
2021/08/04 01:04:06;;;;;;;7.10;4.70;;;26.70;99.90;;;;;;5036350;28;20216;-91
2021/08/04 01:06:48;;;;;;;7.33;4.80;;;26.70;97.90;;;;;;5417598;23;20240;-90
2021/08/04 01:09:24;;;;;;;5.40;4.80;;;26.70;98.00;;;;;;5141640;23;20313;-92
2021/08/04 01:12:01;;;;;;;5.67;4.63;;;26.60;97.00;;;;;;5013749;28;20226;-92
2021/08/04 01:14:36;;;;;;;7.03;4.23;;;26.60;96.90;;;;;;5006109;28;20214;-91
2021/08/04 01:17:13;;;;;;;7.53;4.27;;;26.60;96.90;;;;;;5011743;28;20217;-92
2021/08/04 01:20:11;;;;;;;6.43;4.43;;;26.50;97.40;;;;;;4993250;28;20202;-92
2021/08/04 01:22:58;;;;;;;5.50;5.00;;;26.60;97.00;;;;;;4974312;28;20749;-92
2021/08/04 01:25:33;;;;;;;6.50;4.90;;;26.60;98.20;;;;;;4954238;28;20207;-91
2021/08/04 01:28:23;;;;;;;6.07;5.37;;;26.70;98.00;;;;;;4965812;28;20210;-91
2021/08/04 01:30:58;;;;;;;5.27;4.50;;;26.80;97.80;;;;;;4966912;28;20222;-92
2021/08/04 01:33:32;;;;;;;5.60;4.70;;;26.80;98.60;;;;;;4982224;28;20656;-91
2021/08/04 01:36:05;;;;;;;6.20;4.80;;;26.60;98.10;;;;;;4983963;28;20231;-91
2021/08/04 01:38:39;;;;;;;7.53;5.20;;;26.60;98.80;;;;;;4983928;28;20274;-92
2021/08/04 01:41:12;;;;;;;6.53;4.57;;;26.60;98.40;;;;;;4990621;28;20207;-92
2021/08/04 01:43:46;;;;;;;5.47;4.90;;;26.50;99.40;;;;;;4994384;28;20203;-90
2021/08/04 01:46:21;;;;;;;5.17;4.63;;;26.40;98.50;;;;;;4988496;28;20649;-91
2021/08/04 01:48:54;;;;;;;6.43;4.83;;;26.40;98.90;;;;;;4992424;28;20214;-91
2021/08/04 01:51:27;;;;;;;7.60;5.00;;;26.30;99.20;;;;;;4986429;28;20290;-91
2021/08/04 01:53:59;;;;;;;7.23;5.13;;;26.30;99.90;;;;;;4982012;28;20214;-91
2021/08/04 01:56:31;;;;;;;6.50;5.67;;;26.20;99.90;;;;;;4983626;28;20215;-90
2021/08/04 01:59:04;;;;;;;8.17;5.70;;;26.20;99.90;;;;;;4983164;28;20211;-91
2021/08/04 02:01:39;;;;;;;8.77;5.70;;;26.20;99.90;;;;;;4982895;28;20294;-91
2021/08/04 02:04:12;;;;;;;7.50;5.80;;;26.20;99.90;;;;;;4973635;28;20223;-91
2021/08/04 02:06:52;;;;;;;9.17;6.43;;;26.10;99.90;;;;;;4972033;28;20207;-92
2021/08/04 02:09:29;;;;;;;6.73;6.03;;;26.00;99.90;;;;;;4982441;28;20242;-91
2021/08/04 02:12:05;;;;;;;7.27;6.00;;;25.90;99.90;;;;;;4992158;28;20222;-91
2021/08/04 02:14:47;;;;;;;9.63;6.83;;;26.00;99.90;;;;;;4988307;28;20379;-91
2021/08/04 02:17:23;;;;;;;7.47;6.60;;;25.80;99.90;;;;;;4981843;28;20230;-91
2021/08/04 02:19:59;;;;;;;8.43;6.53;;;25.80;99.90;;;;;;4992677;28;20211;-91
2021/08/04 02:22:35;;;;;;;8.57;6.40;;;25.70;99.90;;;;;;4984222;28;20234;-91
2021/08/04 02:25:21;;;;;;;8.93;5.80;;;25.60;99.90;;;;;;4989558;28;20218;-91
2021/08/04 02:27:56;;;;;;;9.83;6.60;;;25.60;99.90;;;;;;4988661;28;20262;-91
2021/08/04 02:30:34;;;;;;;6.93;5.97;;;25.60;99.90;;;;;;4991358;28;20213;-91
2021/08/04 02:33:06;;;;;;;9.47;6.40;;;25.50;99.90;;;;;;4969080;29;20279;-90
2021/08/04 02:35:38;;;;;;;7.67;6.07;;;25.50;99.90;;;;;;4973009;29;20215;-91
2021/08/04 02:38:10;;;;;;;8.07;6.00;;;25.40;99.90;;;;;;4987566;28;20258;-91
2021/08/04 02:40:44;;;;;;;9.20;6.43;;;25.40;99.90;;;;;;4991863;28;20210;-91
2021/08/04 02:43:18;;;;;;;6.90;5.70;;;25.30;99.90;;;;;;4977596;28;20207;-91
2021/08/04 02:45:54;;;;;;;9.27;5.80;;;25.20;99.90;;;;;;4997252;28;20222;-91
2021/08/04 02:48:27;;;;;;;6.43;4.90;;;25.10;99.90;;;;;;4998222;28;20262;-89
2021/08/04 02:51:05;;;;;;;8.27;5.37;;;25.10;99.90;;;;;;4998099;28;20190;-90
2021/08/04 02:53:36;;;;;;;6.07;4.97;;;25.00;99.90;;;;;;4998268;28;20191;-91
2021/08/04 02:56:07;;;;;;;6.80;5.17;;;24.90;99.90;;;;;;4998379;28;20199;-91
2021/08/04 02:58:39;;;;;;;11.10;5.60;;;24.80;99.90;;;;;;4997834;28;20246;-90
2021/08/04 03:03:47;;;;;;;5.97;5.37;;;24.70;99.90;;;;;;4975866;29;20227;-92
2021/08/04 03:06:22;;;;;;;10.93;5.73;;;24.60;99.90;;;;;;4973118;29;20219;-92
2021/08/04 03:09:02;;;;;;;6.77;5.87;;;24.60;99.90;;;;;;4976167;28;20218;-92
2021/08/04 03:11:34;;;;;;;7.97;6.27;;;24.60;99.90;;;;;;4959024;28;20239;-92
2021/08/04 03:14:07;;;;;;;10.13;6.67;;;24.60;99.90;;;;;;4975582;29;20239;-91
2021/08/04 03:16:38;;;;;;;8.67;6.27;;;24.50;99.90;;;;;;4978623;28;20238;-92
2021/08/04 03:19:12;;;;;;;10.90;7.37;;;24.40;99.90;;;;;;4997982;28;20693;-91
2021/08/04 03:21:51;;;;;;;7.83;6.73;;;24.40;99.90;;;;;;4996428;28;20224;-91
2021/08/04 03:24:26;;;;;;;10.07;7.23;;;24.40;99.90;;;;;;4998742;28;20567;-91
2021/08/04 03:27:06;;;;;;;9.37;7.30;;;24.40;99.90;;;;;;4996926;28;20215;-91
2021/08/04 03:29:38;;;;;;;14.23;7.57;;;24.40;99.90;;;;;;4981323;28;20222;-92
2021/08/04 03:32:24;;;;;;;13.27;7.37;;;24.30;99.90;;;;;;4996351;28;20307;-92
2021/08/04 03:34:59;;;;;;;10.10;6.77;;;24.00;99.90;;;;;;4981882;28;20218;-91
2021/08/04 03:37:33;;;;;;;9.10;6.13;;;23.80;99.90;;;;;;4997627;28;20242;-92
2021/08/04 03:40:19;;;;;;;9.33;6.50;;;23.50;99.90;;;;;;4997691;28;20231;-92
2021/08/04 03:42:54;;;;;;;6.17;5.10;;;23.40;99.90;;;;;;4996759;28;20210;-91
2021/08/04 03:45:28;;;;;;;9.17;5.77;;;23.20;99.90;;;;;;4980595;28;20657;-91
2021/08/04 03:48:00;;;;;;;11.43;5.80;;;23.10;99.90;;;;;;4993891;28;20673;-90
2021/08/04 03:50:35;;;;;;;11.57;5.47;;;23.10;99.90;;;;;;4994784;28;20199;-91
2021/08/04 03:53:06;;;;;;;8.50;5.50;;;23.00;99.90;;;;;;4992212;28;20222;-91
2021/08/04 03:55:37;;;;;;;8.60;5.87;;;23.00;99.90;;;;;;4987650;28;20297;-91
2021/08/04 03:58:09;;;;;;;7.10;5.77;;;22.90;99.90;;;;;;4970245;28;20207;-91
2021/08/04 04:00:42;;;;;;;9.60;5.60;;;22.80;99.90;;;;;;4985322;28;20251;-92
2021/08/04 04:03:15;;;;;;;10.53;5.87;;;22.70;99.90;;;;;;4986783;28;20237;-91
2021/08/04 04:05:48;;;;;;;9.53;6.00;;;22.70;99.90;;;;;;4985549;28;20241;-92
2021/08/04 04:08:21;;;;;;;10.50;6.33;;;22.60;99.90;;;;;;4986547;28;20226;-92
2021/08/04 04:10:54;;;;;;;9.73;6.03;;;22.60;99.90;;;;;;4993488;28;20218;-91
2021/08/04 04:13:27;;;;;;;7.37;5.80;;;22.50;99.90;;;;;;4986085;28;20235;-92
2021/08/04 04:15:58;;;;;;;11.40;5.37;;;22.50;99.90;;;;;;4966531;28;20219;-92
2021/08/04 04:18:31;;;;;;;7.07;5.07;;;22.40;99.90;;;;;;4990441;28;20203;-91
2021/08/04 04:21:05;;;;;;;5.40;4.50;;;22.40;99.90;;;;;;4994786;28;20199;-92
2021/08/04 04:23:37;;;;;;;8.13;4.60;;;22.30;99.90;;;;;;4999406;28;20214;-91
2021/08/04 04:26:28;;;;;;;9.20;4.67;;;22.20;99.90;;;;;;4996916;28;20207;-89
2021/08/04 04:34:15;;;;;;;8.93;4.40;;;22.20;99.90;;;;;;5053294;28;20340;-92
2021/08/04 04:36:55;;;;;;;5.53;3.90;;;22.10;99.90;;;;;;5054518;28;20227;-92
2021/08/04 04:39:27;;;;;;;5.80;3.70;;;22.10;99.90;;;;;;5037928;28;20241;-90
2021/08/04 04:42:01;;;;;;;4.73;3.23;;;22.00;99.90;;;;;;5032621;28;20205;-90
2021/08/04 04:44:33;;;;;;;6.73;3.97;;;21.90;99.90;;;;;;5034035;28;20205;-91
2021/08/04 04:47:13;;;;;;;4.20;2.93;;;21.80;99.90;;;;;;5027862;28;20226;-91
2021/08/04 04:49:52;;;;;;;7.20;3.43;;;21.80;99.90;;;;;;5014095;28;20205;-92
2021/08/04 04:52:28;;;;;;;4.77;3.47;;;21.70;99.90;;;;;;5032982;28;20209;-90
2021/08/04 04:55:05;;;;;;;7.10;3.50;;;21.60;99.90;;;;;;5027219;28;20293;-91
2021/08/04 04:57:36;;;;;;;4.67;3.43;;;21.50;99.90;;;;;;5026265;28;20664;-90
2021/08/04 05:00:12;;;;;;;4.93;3.00;;;21.40;99.90;;;;;;5024866;28;20193;-93
2021/08/04 05:02:45;;;;;;;4.83;2.73;;;21.40;99.90;;;;;;5015220;28;20275;-91
2021/08/04 05:11:31;;;;;;;5.90;2.47;;;21.20;99.90;;;;;;5029304;28;20324;-91
2021/08/04 05:14:04;;;;;;;4.53;2.70;;;21.10;99.90;;;;;;5007006;28;20304;-92
2021/08/04 05:16:37;;;;;;;4.63;2.60;;;21.00;99.90;;;;;;5027740;28;20232;-91
2021/08/04 05:19:09;;;;;;;3.27;2.10;;;20.90;99.90;;;;;;5022222;28;20596;-93
2021/08/04 05:21:46;;;;;;;3.50;2.47;;;20.80;99.90;;;;;;5031174;28;20247;-92
2021/08/04 05:24:25;;;;;;;7.23;2.47;;;20.80;99.90;;;;;;5037503;23;20230;-91
2021/08/04 05:26:58;;;;;;;2.93;2.07;;;20.70;99.90;;;;;;5018889;28;20201;-90
2021/08/04 05:29:34;;;;;;;5.37;2.57;;;20.70;99.90;;;;;;5018145;28;20202;-92
2021/08/04 05:32:08;;;;;;;3.13;2.03;;;20.60;99.90;;;;;;5017915;28;20225;-92
2021/08/04 05:34:40;;;;;;;3.80;2.30;;;20.60;99.90;;;;;;5002088;28;20206;-91
2021/08/04 05:37:13;;;;;;;4.33;1.93;;;20.50;99.90;;;;;;5006885;28;20206;-91
2021/08/04 05:39:48;;;;;;;6.10;2.17;;;20.50;99.90;;;;;;5005498;28;20214;-90
2021/08/04 05:42:22;;;;;;;2.20;1.73;;;20.40;99.90;;;;;;4989416;28;20198;-91
2021/08/04 05:44:57;;;;;;;3.10;2.10;;;20.30;99.90;;;;;;5008032;28;20228;-91
2021/08/04 05:47:28;;;;;;;5.43;2.20;;;20.30;99.90;;;;;;5014808;28;20244;-90
2021/08/04 05:50:04;;;;;;;3.63;1.97;;;20.20;99.90;;;;;;4991958;28;20198;-91
2021/08/04 05:52:40;;;;;;;7.90;2.23;;;20.10;99.90;;;;;;5012745;28;20981;-90
2021/08/04 05:55:23;;;;;;;4.97;2.53;;;20.10;99.90;;;;;;5010444;28;20213;-91
2021/08/04 05:57:54;;;;;;;3.33;1.90;;;20.00;99.90;;;;;;5009773;28;20233;-92
2021/08/04 06:00:29;;;;;;;4.63;1.70;;;20.00;99.90;;;;;;5001502;28;20226;-91
2021/08/04 06:05:54;;;;;;;3.60;2.20;;;19.80;99.90;;;;;;5136138;23;20336;-90
2021/08/04 06:08:29;;;;;;;3.67;2.10;;;19.80;99.90;;;;;;5022836;28;20229;-91
2021/08/04 06:11:11;;;;;;;5.30;2.10;;;19.70;99.90;;;;;;5004218;28;20210;-91
2021/08/04 06:13:51;;;;;;;3.63;2.10;;;19.70;99.90;;;;;;5019489;28;20233;-92
2021/08/04 06:16:25;;;;;;;3.83;1.83;;;19.60;99.90;;;;;;5008784;28;20206;-91
2021/08/04 06:19:00;;;;;;;4.23;1.80;;;19.60;99.90;;;;;;5024051;28;20213;-91
2021/08/04 06:21:33;;;;;;;5.27;2.20;;;19.50;99.90;;;;;;5006602;28;20297;-92
2021/08/04 06:24:17;;;;;;;3.90;1.90;;;19.50;99.90;;;;;;5003823;28;20208;-92
2021/08/04 06:26:50;;;;;;;4.53;2.10;;;19.40;99.90;;;;;;5019556;28;20273;-93
2021/08/04 06:29:21;;;;;;;5.07;2.17;;;19.30;99.90;;;;;;5016425;28;20206;-92
2021/08/04 06:31:52;;;;;;;9.07;2.17;;;19.30;99.90;;;;;;5016335;28;20252;-92
2021/08/04 06:34:25;;;;;;;3.30;1.70;;;19.20;99.90;;;;;;5017212;28;20336;-92
2021/08/04 06:36:55;;;;;;;2.67;1.90;;;19.20;99.90;;;;;;5016109;28;20233;-92
2021/08/04 06:39:26;;;;;;;4.43;1.80;;;19.20;99.90;;;;;;5016473;28;20205;-91
2021/08/04 06:42:16;;;;;;;2.63;2.20;;;19.10;99.90;;;;;;5016146;28;20201;-91
2021/08/04 06:44:47;;;;;;;4.57;2.10;;;19.10;99.90;;;;;;5016845;28;20260;-92
2021/08/04 06:47:19;;;;;;;5.57;2.43;;;19.00;99.90;;;;;;5020120;28;20216;-92
2021/08/04 06:49:50;;;;;;;3.63;1.90;;;19.00;99.90;;;;;;5016288;28;20213;-92
2021/08/04 06:52:21;;;;;;;4.50;2.50;;;19.00;99.90;;;;;;5015982;28;20201;-92
2021/08/04 06:54:53;;;;;;;4.33;2.40;;;19.00;99.90;;;;;;5016774;28;20703;-92
2021/08/04 06:57:27;;;;;;;2.93;2.00;;;18.90;99.90;;;;;;5016855;28;20205;-92
2021/08/04 06:59:57;;;;;;;4.37;2.50;;;18.90;99.90;;;;;;5016679;28;20197;-90
2021/08/04 07:02:29;;;;;;;4.47;2.50;;;18.90;99.90;;;;;;5015435;28;20267;-91
2021/08/04 07:05:00;;;;;;;3.13;2.10;;;18.80;99.90;;;;;;5016385;28;20711;-92
2021/08/04 07:07:32;;;;;;;3.60;2.10;;;18.80;99.90;;;;;;5000232;28;20217;-92
2021/08/04 07:10:03;;;;;;;5.03;2.13;;;18.70;99.90;;;;;;5016732;28;20225;-92
2021/08/04 07:12:40;;;;;;;2.73;1.77;;;18.70;99.90;;;;;;5016177;28;20209;-92
2021/08/04 07:15:12;;;;;;;3.27;1.40;;;18.60;99.90;;;;;;5003242;28;20233;-91
2021/08/04 07:17:46;;;;;;;2.93;2.03;;;18.60;99.90;;;;;;4997100;28;20627;-90
2021/08/04 07:20:19;;;;;;;4.07;1.60;;;18.60;99.90;;;;;;4996325;28;20638;-91
2021/08/04 07:22:52;;;;;;;3.57;1.90;;;18.50;99.90;;;;;;4998304;28;20214;-92
2021/08/04 07:25:24;;;;;;;2.27;1.90;;;18.50;99.90;;;;;;4998437;28;20703;-90
2021/08/04 07:27:57;;;;;;;5.83;1.90;;;18.50;99.90;;;;;;4997839;28;20237;-90
2021/08/04 07:30:29;;;;;;;3.73;1.80;;;18.50;99.90;;;;;;4996668;28;20885;-90
2021/08/04 07:33:00;;;;;;;3.33;1.77;;;18.50;99.90;;;;;;4997703;28;20209;-89
2021/08/04 07:35:31;;;;;;;3.00;1.70;;;18.40;99.90;;;;;;4997968;28;20230;-89
2021/08/04 07:38:03;;;;;;;4.50;1.87;;;18.40;99.90;;;;;;4998306;28;20315;-89
2021/08/04 07:40:34;;;;;;;2.93;1.80;;;18.40;99.90;;;;;;4998075;28;20217;-90
2021/08/04 07:43:09;;;;;;;2.43;1.63;;;18.30;99.90;;;;;;5003900;28;20202;-90
2021/08/04 07:45:40;;;;;;;4.23;1.90;;;18.40;99.90;;;;;;5003384;28;20237;-90
2021/08/04 07:50:49;;;;;;;4.00;1.80;;;18.30;99.90;;;;;;5092239;23;20278;-91
2021/08/04 07:53:21;;;;;;;4.03;1.73;;;18.30;99.90;;;;;;5036521;28;20193;-91
2021/08/04 07:55:52;;;;;;;5.23;2.10;;;18.30;99.90;;;;;;5025413;28;20210;-90
2021/08/04 07:58:28;;;;;;;2.90;1.70;;;18.30;99.90;;;;;;5023044;28;20217;-89
2021/08/04 08:00:59;;;;;;;2.03;1.77;;;18.20;99.90;;;;;;5025061;28;20209;-89
2021/08/04 08:03:31;;;;;;;4.17;1.53;;;18.20;99.90;;;;;;5025706;28;20801;-90
2021/08/04 08:06:02;;;;;;;3.77;1.70;;;18.30;99.90;;;;;;5028063;28;20198;-90
2021/08/04 08:08:37;;;;;;;2.20;1.40;;;18.30;99.90;;;;;;5028119;28;20222;-90
2021/08/04 08:11:09;;;;;;;2.03;1.63;;;18.20;99.90;;;;;;4990083;28;20266;-89
2021/08/04 08:13:42;;;;;;;2.30;1.27;;;18.20;99.90;;;;;;4995686;28;20226;-90
2021/08/04 08:16:13;;;;;;;4.13;1.60;;;18.20;99.90;;;;;;5019116;28;20225;-90
2021/08/04 08:18:44;;;;;;;3.40;1.60;;;18.20;99.90;;;;;;5018482;28;20269;-90
2021/08/04 08:21:16;;;;;;;4.87;1.90;;;18.10;99.90;;;;;;5011102;28;20268;-90
2021/08/04 08:23:47;;;;;;;9.03;1.77;;;18.10;99.90;;;;;;5029713;28;20205;-89
2021/08/04 08:26:19;;;;;;;2.87;1.30;;;18.10;99.90;;;;;;5011929;28;20205;-90
2021/08/04 08:28:52;;;;;;;4.03;1.73;;;18.10;99.90;;;;;;5020363;28;20273;-90
2021/08/04 08:31:23;;;;;;;2.00;1.13;;;18.10;99.90;;;;;;5019150;28;20220;-91
2021/08/04 08:33:59;;;;;;;3.33;1.77;;;18.10;99.90;;;;;;5002218;28;20730;-90
2021/08/04 08:36:31;;;;;;;1.60;1.10;;;18.10;99.90;;;;;;5002295;28;20228;-90
2021/08/04 08:39:03;;;;;;;3.93;1.30;;;18.10;99.90;;;;;;5019224;28;20223;-90
2021/08/04 08:41:34;;;;;;;1.70;1.30;;;18.10;99.90;;;;;;5018257;28;20206;-90
2021/08/04 08:44:10;;;;;;;1.83;1.30;;;18.10;99.90;;;;;;5018929;28;20237;-90
2021/08/04 08:46:42;;;;;;;3.43;1.30;;;18.10;99.90;;;;;;5018758;28;20205;-90
2021/08/04 08:49:14;;;;;;;1.70;1.30;;;18.00;99.90;;;;;;5018231;28;20209;-90
2021/08/04 08:51:45;;;;;;;3.33;1.37;;;18.00;99.90;;;;;;5000384;28;20309;-90
2021/08/04 08:54:17;;;;;;;3.20;1.57;;;18.00;99.90;;;;;;5004210;28;20277;-90
2021/08/04 08:59:41;;;;;;;1.93;1.20;;;18.00;99.90;;;;;;4979355;28;20257;-89
2021/08/04 09:02:12;;;;;;;2.47;1.40;;;17.90;99.90;;;;;;4978366;28;20245;-89
2021/08/04 09:04:59;;;;;;;3.10;1.20;;;17.90;99.90;;;;;;4978189;28;20231;-91
2021/08/04 09:07:37;;;;;;;3.87;1.30;;;17.80;99.90;;;;;;4960966;29;20274;-89
2021/08/04 09:10:25;;;;;;;1.50;1.40;;;17.80;99.90;;;;;;4942883;29;20207;-90
2021/08/04 09:12:58;;;;;;;2.40;1.10;;;17.80;99.90;;;;;;4960503;28;20235;-89
2021/08/04 09:15:34;;;;;;;2.10;1.53;;;17.80;99.90;;;;;;4975194;28;20832;-89
2021/08/04 09:18:09;;;;;;;3.43;1.43;;;17.70;99.90;;;;;;4979970;28;20211;-89
2021/08/04 09:20:46;;;;;;;1.60;1.10;;;17.70;99.90;;;;;;4979525;28;20203;-90
2021/08/04 09:23:19;;;;;;;2.53;1.33;;;17.70;99.90;;;;;;4980023;28;20246;-90
2021/08/04 09:26:06;;;;;;;2.10;1.30;;;17.60;99.90;;;;;;4980005;28;20241;-90
2021/08/04 09:29:00;;;;;;;3.43;1.20;;;17.60;99.90;;;;;;4979939;28;20207;-89
2021/08/04 09:31:51;;;;;;;3.57;1.13;;;17.60;99.90;;;;;;4961085;28;20275;-89
2021/08/04 09:34:35;;;;;;;3.40;1.20;;;17.60;99.90;;;;;;4980558;28;20298;-89
2021/08/04 09:37:11;;;;;;;2.33;1.20;;;17.50;99.90;;;;;;4981122;28;20230;-90
2021/08/04 09:39:44;;;;;;;3.20;1.27;;;17.50;99.90;;;;;;4997657;28;20194;-90
2021/08/04 09:42:16;;;;;;;4.17;1.57;;;17.50;99.90;;;;;;4997504;28;20237;-91
2021/08/04 09:44:54;;;;;;;3.37;1.13;;;17.40;99.90;;;;;;4989308;28;20211;-90
2021/08/04 09:47:28;;;;;;;4.00;1.43;;;17.40;99.90;;;;;;4978835;28;20193;-91
2021/08/04 09:50:02;;;;;;;0.97;0.90;;;17.40;99.90;;;;;;4962519;28;20200;-90
2021/08/04 09:52:35;;;;;;;3.27;1.20;;;17.40;99.90;;;;;;4977718;28;20214;-92
2021/08/04 09:55:18;;;;;;;1.33;1.10;;;17.40;99.90;;;;;;4978680;28;20250;-90
2021/08/04 09:57:52;;;;;;;1.87;1.27;;;17.40;99.90;;;;;;4978394;28;20284;-90
2021/08/04 10:00:24;;;;;;;2.40;1.30;;;17.30;99.90;;;;;;4975422;28;20210;-91
2021/08/04 10:03:13;;;;;;;3.33;1.37;;;17.20;99.90;;;;;;4964871;29;20212;-91
2021/08/04 10:05:46;;;;;;;1.10;1.00;;;17.20;99.90;;;;;;4975757;28;20287;-89
2021/08/04 10:08:17;;;;;;;2.30;1.00;;;17.20;99.90;;;;;;4978955;28;20191;-89
2021/08/04 10:10:52;;;;;;;1.30;1.00;;;17.20;99.90;;;;;;4978278;28;20204;-90
2021/08/04 10:13:31;;;;;;;1.83;1.40;;;17.20;99.90;;;;;;5003946;23;20277;-89
2021/08/04 10:16:03;;;;;;;3.70;1.70;;;17.10;99.90;;;;;;5011814;28;20237;-89
2021/08/04 10:18:41;;;;;;;4.83;1.50;;;17.10;99.90;;;;;;5012364;28;20226;-89
2021/08/04 10:21:13;;;;;;;2.33;1.30;;;17.10;99.90;;;;;;5010442;28;20218;-89
2021/08/04 10:23:49;;;;;;;3.37;1.40;;;17.00;99.90;;;;;;5008644;28;20210;-90
2021/08/04 10:26:22;;;;;;;3.60;1.30;;;17.00;99.90;;;;;;5011151;28;20198;-89
2021/08/04 10:28:57;;;;;;;3.30;1.50;;;17.00;99.90;;;;;;5011474;28;20264;-89
2021/08/04 10:31:28;;;;;;;1.73;1.10;;;17.00;99.90;;;;;;5013856;28;20237;-89
2021/08/04 10:34:02;;;;;;;1.97;1.20;;;17.00;99.90;;;;;;5008784;28;20194;-88
2021/08/04 10:36:35;;;;;;;1.80;1.40;;;16.90;99.90;;;;;;5006013;28;20237;-89
2021/08/04 10:39:09;;;;;;;1.83;1.23;;;16.90;99.90;;;;;;5001824;28;20280;-90
2021/08/04 10:41:41;;;;;;;1.87;1.33;;;16.90;99.90;;;;;;5000127;28;20234;-90
2021/08/04 10:44:24;;;;;;;1.77;1.20;;;16.90;99.90;;;;;;4997986;28;20222;-90
2021/08/04 10:46:56;;;;;;;2.57;1.03;;;16.90;99.90;;;;;;5001469;28;20628;-90
2021/08/04 10:49:32;;;;;;;5.60;1.30;;;16.90;99.90;;;;;;5003271;28;20293;-89
2021/08/04 10:52:17;;;;;;;4.20;1.07;;;16.80;99.90;;;;;;4999826;28;20218;-90
2021/08/04 10:55:14;;;;;;;2.53;1.00;;;16.80;99.90;;;;;;4999127;28;20214;-89
2021/08/04 10:58:14;;;;;;;4.10;1.30;;;16.80;99.90;;;;;;5000326;28;20257;-89
2021/08/04 11:00:49;;;;;;;2.30;1.10;;;16.80;99.90;;;;;;4923457;29;20256;-90
2021/08/04 11:03:47;;;;;;;1.63;1.13;;;16.70;99.90;;;;;;4989753;28;20264;-90
2021/08/04 11:06:21;;;;;;;1.97;1.20;;;16.70;99.90;;;;;;4979485;28;20322;-90
2021/08/04 11:09:24;;;;;;;1.70;1.17;;;16.70;99.90;;;;;;4979504;28;20661;-90
2021/08/04 11:12:00;;;;;;;2.07;1.27;;;16.70;99.90;;;;;;4961606;28;20207;-90
2021/08/04 11:14:43;;;;;;;2.40;1.03;;;16.60;99.90;;;;;;4979870;28;20213;-90
2021/08/04 11:17:17;;;;;;;2.73;1.00;;;16.50;99.90;;;;;;4963854;28;20652;-90
2021/08/04 11:20:10;;;;;;;1.53;0.93;;;16.50;99.90;;;;;;4980577;28;20676;-90
2021/08/04 11:22:49;;;;;;;1.87;1.00;;;16.50;99.90;;;;;;4980497;28;20256;-90
2021/08/04 11:25:40;;;;;;;2.80;1.07;;;16.50;99.90;;;;;;4980086;28;20206;-89
2021/08/04 11:28:19;;;;;;;1.50;1.20;;;16.50;99.90;;;;;;4980729;28;20206;-91
2021/08/04 11:30:57;;;;;;;1.93;1.20;;;16.60;99.90;;;;;;4980268;28;20213;-90
2021/08/04 11:33:32;;;;;;;5.43;1.57;;;16.60;99.90;;;;;;4982041;28;20211;-90
2021/08/04 11:36:08;;;;;;;3.63;1.20;;;16.50;99.90;;;;;;4984176;28;20238;-90
2021/08/04 11:38:47;;;;;;;2.07;1.00;;;16.50;99.90;;;;;;4986394;28;20211;-90
2021/08/04 11:41:21;;;;;;;3.13;1.17;;;16.50;99.90;;;;;;4983118;28;20238;-89
2021/08/04 11:43:59;;;;;;;2.50;1.23;;;16.50;99.90;;;;;;4984836;28;20242;-90
2021/08/04 11:46:36;;;;;;;1.80;1.10;;;16.50;99.90;;;;;;4985564;28;20269;-90
2021/08/04 11:49:10;;;;;;;2.97;1.27;;;16.40;99.90;;;;;;4983660;28;20579;-90
2021/08/04 11:51:53;;;;;;;3.20;1.37;;;16.40;99.90;;;;;;4982259;28;20222;-90
2021/08/04 11:54:35;;;;;;;2.10;1.20;;;16.40;99.90;;;;;;4982502;28;20241;-89
2021/08/04 11:57:08;;;;;;;1.60;1.07;;;16.40;99.90;;;;;;4981987;28;20385;-90
2021/08/04 11:59:47;;;;;;;2.47;1.23;;;16.30;99.90;;;;;;4982431;28;20215;-89
2021/08/04 12:02:21;;;;;;;2.67;1.20;;;16.30;99.90;;;;;;4981229;28;20215;-90
2021/08/04 12:04:54;;;;;;;2.13;1.20;;;16.40;99.90;;;;;;4981778;28;20222;-90
2021/08/04 12:07:28;;;;;;;2.23;1.40;;;16.30;99.90;;;;;;4981872;28;20680;-90
2021/08/04 12:10:04;;;;;;;2.00;1.03;;;16.30;99.90;;;;;;4980865;28;20248;-90
2021/08/04 12:12:37;;;;;;;2.97;1.37;;;16.20;99.90;;;;;;4980747;28;20297;-90
2021/08/04 12:15:17;;;;;;;1.97;1.30;;;16.20;99.90;;;;;;4980986;28;20656;-90
2021/08/04 12:17:50;;;;;;;4.17;1.30;;;16.20;99.90;;;;;;4980707;28;20238;-90
2021/08/04 12:20:24;;;;;;;1.20;1.10;;;16.20;99.90;;;;;;4983177;28;20241;-91
2021/08/04 12:23:00;;;;;;;3.73;1.30;;;16.10;99.90;;;;;;4981373;28;20280;-90
2021/08/04 12:25:38;;;;;;;2.43;1.20;;;16.10;99.90;;;;;;4980780;28;20210;-90
2021/08/04 12:28:10;;;;;;;2.53;1.63;;;16.10;99.90;;;;;;4980873;28;20265;-90
2021/08/04 12:30:45;;;;;;;3.53;1.47;;;16.00;99.90;;;;;;4980516;28;20306;-90
2021/08/04 12:33:19;;;;;;;2.43;1.30;;;16.00;99.90;;;;;;4982502;28;20211;-90
2021/08/04 12:36:01;;;;;;;2.27;1.30;;;16.00;99.90;;;;;;4996260;28;20211;-89
2021/08/04 12:38:58;;;;;;;2.83;1.30;;;16.00;99.90;;;;;;4999217;28;20199;-91
2021/08/04 12:41:33;;;;;;;3.87;1.43;;;16.00;99.90;;;;;;4976043;28;20566;-90
2021/08/04 12:44:06;;;;;;;2.53;1.27;;;16.00;99.90;;;;;;4978871;28;20229;-90
2021/08/04 12:46:40;;;;;;;1.40;1.30;;;15.90;99.90;;;;;;4961860;29;20256;-90
2021/08/04 12:49:30;;;;;;;2.70;1.30;;;15.80;99.90;;;;;;4962642;29;20294;-90
2021/08/04 12:52:02;;;;;;;3.50;1.43;;;15.80;99.90;;;;;;4964288;29;20659;-89
2021/08/04 12:54:35;;;;;;;3.07;1.70;;;15.80;99.90;;;;;;4981708;28;20270;-89
2021/08/04 12:57:24;;;;;;;1.97;1.10;;;15.80;99.90;;;;;;4980922;28;20317;-89
2021/08/04 12:59:55;;;;;;;2.07;1.60;;;15.80;99.90;;;;;;4983047;28;20673;-89
2021/08/04 13:02:26;;;;;;;2.37;1.30;;;15.80;99.90;;;;;;4980846;28;20237;-90
2021/08/04 13:05:06;;;;;;;5.47;1.40;;;15.80;99.90;;;;;;4981970;28;20235;-90
2021/08/04 13:07:44;;;;;;;3.87;1.50;;;15.80;99.90;;;;;;4983372;28;20242;-90
2021/08/04 13:10:35;;;;;;;2.90;1.20;;;15.80;99.90;;;;;;4980320;28;20291;-90
2021/08/04 13:13:09;;;;;;;4.73;1.60;;;15.80;99.90;;;;;;4980943;28;20641;-90
2021/08/04 13:15:51;;;;;;;4.93;1.90;;;15.80;99.90;;;;;;4964887;28;20212;-90
2021/08/04 13:18:23;;;;;;;2.67;1.60;;;15.80;99.90;;;;;;4947750;29;20313;-90
2021/08/04 13:20:54;;;;;;;2.00;1.80;;;15.80;99.90;;;;;;4963504;29;20240;-91
2021/08/04 13:23:34;;;;;;;1.73;1.60;;;15.90;99.90;;;;;;4966080;29;20267;-90
2021/08/04 13:26:06;;;;;;;2.57;1.53;;;15.80;99.90;;;;;;4963738;29;20662;-90
2021/08/04 13:28:43;;;;;;;3.53;1.73;;;15.90;99.90;;;;;;4948365;29;20242;-90
2021/08/04 13:31:17;;;;;;;3.20;1.80;;;15.90;99.90;;;;;;4963037;29;20215;-90
2021/08/04 13:33:51;;;;;;;2.30;1.80;;;15.90;99.90;;;;;;4966214;29;20695;-90
2021/08/04 13:36:25;;;;;;;4.60;1.80;;;16.00;99.90;;;;;;4964555;29;20238;-90
2021/08/04 13:38:56;;;;;;;1.90;1.70;;;16.00;99.90;;;;;;4965917;29;20239;-90
2021/08/04 13:41:27;;;;;;;6.90;1.90;;;16.00;99.90;;;;;;4973924;28;20195;-90
2021/08/04 13:44:00;;;;;;;4.17;2.00;;;16.10;99.90;;;;;;4981250;28;20244;-89
2021/08/04 13:46:32;;;;;;;2.10;1.70;;;16.10;99.90;;;;;;4998180;28;20195;-89
2021/08/04 13:49:03;;;;;;;3.57;2.10;;;16.10;99.90;;;;;;4992709;28;20215;-89
2021/08/04 13:51:34;;;;;;;3.53;1.50;;;16.10;99.90;;;;;;4987385;28;20211;-90
2021/08/04 13:54:06;;;;;;;4.07;1.80;;;16.20;99.90;;;;;;4990143;28;20318;-89